createdAt,value
2023-01-08T00:01:20.501Z,2.87
2023-01-08T00:03:48.059Z,3.10
2023-01-08T00:06:18.784Z,2.60
2023-01-08T00:08:46.082Z,4.03
2023-01-08T00:11:14.064Z,3.20
2023-01-08T00:13:41.691Z,2.97
2023-01-08T00:16:17.862Z,3.10
2023-01-08T00:18:47.009Z,2.87
2023-01-08T00:21:14.575Z,3.03
2023-01-08T00:23:41.747Z,3.30
2023-01-08T00:26:10.528Z,3.30
2023-01-08T00:28:38.584Z,3.40
2023-01-08T00:31:08.439Z,3.20
2023-01-08T00:33:36.485Z,2.97
2023-01-08T00:36:09.475Z,3.00
2023-01-08T00:38:36.612Z,3.40
2023-01-08T00:41:04.788Z,3.20
2023-01-08T00:43:32.124Z,3.50
2023-01-08T00:45:59.458Z,3.40
2023-01-08T00:48:26.750Z,3.43
2023-01-08T00:50:54.473Z,3.07
2023-01-08T00:53:22.889Z,3.30
2023-01-08T00:55:50.074Z,3.40
2023-01-08T00:58:17.219Z,3.90
2023-01-08T01:00:44.310Z,3.30
2023-01-08T01:03:11.453Z,4.10
2023-01-08T01:05:38.713Z,3.70
2023-01-08T01:08:05.962Z,3.47
2023-01-08T01:10:33.052Z,3.60
2023-01-08T01:13:00.263Z,3.60
2023-01-08T01:15:27.429Z,3.90
2023-01-08T01:17:54.507Z,3.97
2023-01-08T01:20:22.896Z,3.90
2023-01-08T01:22:50.829Z,3.53
2023-01-08T01:25:22.252Z,3.67
2023-01-08T01:27:49.574Z,3.73
2023-01-08T01:30:16.725Z,4.27
2023-01-08T01:32:43.932Z,3.90
2023-01-08T01:35:11.515Z,3.90
2023-01-08T01:37:38.749Z,3.50
2023-01-08T01:40:06.683Z,3.90
2023-01-08T01:42:43.894Z,3.50
2023-01-08T01:45:24.611Z,3.50
2023-01-08T01:48:04.398Z,3.70
2023-01-08T01:50:40.160Z,4.07
2023-01-08T01:53:11.087Z,3.17
2023-01-08T01:55:43.871Z,3.43
2023-01-08T01:58:23.052Z,3.57
2023-01-08T02:00:51.501Z,3.90
2023-01-08T02:03:24.978Z,3.80
2023-01-08T02:06:08.201Z,3.50
2023-01-08T02:08:53.294Z,3.60
2023-01-08T02:11:45.196Z,3.60
2023-01-08T02:14:32.711Z,3.60
2023-01-08T02:17:32.977Z,3.40
2023-01-08T02:20:19.103Z,3.33
2023-01-08T02:23:19.641Z,3.10
2023-01-08T02:26:13.577Z,3.30
2023-01-08T02:29:05.510Z,3.33
2023-01-08T02:31:34.784Z,3.47
2023-01-08T02:34:02.235Z,3.17
2023-01-08T02:36:48.738Z,3.50
2023-01-08T02:39:39.848Z,3.30
2023-01-08T02:42:24.126Z,3.20
2023-01-08T02:45:11.637Z,3.30
2023-01-08T02:47:45.368Z,3.10
2023-01-08T02:50:51.911Z,3.20
2023-01-08T02:53:28.867Z,3.00
2023-01-08T02:56:26.760Z,3.03
2023-01-08T02:58:54.903Z,3.13
2023-01-08T03:01:24.065Z,3.30
2023-01-08T03:03:57.294Z,3.10
2023-01-08T03:06:27.251Z,3.27
2023-01-08T03:08:54.898Z,3.30
2023-01-08T03:11:24.893Z,3.13
2023-01-08T03:14:08.363Z,2.90
2023-01-08T03:16:57.684Z,2.80
2023-01-08T03:19:56.102Z,2.97
2023-01-08T03:22:24.202Z,3.00
2023-01-08T03:24:54.503Z,3.20
2023-01-08T03:27:28.700Z,3.27
2023-01-08T03:29:59.060Z,3.60
2023-01-08T03:32:29.410Z,3.20
2023-01-08T03:34:59.875Z,3.23
2023-01-08T03:37:34.526Z,3.23
2023-01-08T03:40:13.179Z,3.20
2023-01-08T03:42:40.665Z,3.33
2023-01-08T03:45:08.749Z,3.10
2023-01-08T03:47:37.872Z,3.10
2023-01-08T03:50:11.262Z,2.97
2023-01-08T03:52:38.317Z,3.20
2023-01-08T03:55:05.909Z,3.23
2023-01-08T03:57:32.955Z,3.00
2023-01-08T03:59:59.994Z,2.73
2023-01-08T04:02:27.225Z,3.37
2023-01-08T04:04:54.428Z,3.30
2023-01-08T04:07:21.682Z,2.73
2023-01-08T04:09:48.841Z,3.23
2023-01-08T04:12:16.006Z,3.10
2023-01-08T04:14:43.061Z,3.20
2023-01-08T04:17:14.240Z,3.10
2023-01-08T04:19:41.445Z,3.03
2023-01-08T04:22:11.229Z,3.60
2023-01-08T04:24:38.293Z,3.40
2023-01-08T04:27:05.685Z,3.40
2023-01-08T04:29:33.086Z,3.50
2023-01-08T04:32:01.059Z,3.80
2023-01-08T04:34:28.255Z,3.20
2023-01-08T04:36:55.369Z,3.23
2023-01-08T04:39:22.496Z,3.23
2023-01-08T04:41:49.702Z,3.50
2023-01-08T04:44:16.967Z,3.50
2023-01-08T04:46:44.120Z,3.63
2023-01-08T04:49:12.886Z,3.60
2023-01-08T04:51:40.397Z,3.43
2023-01-08T04:54:07.560Z,3.70
2023-01-08T04:56:34.591Z,3.60
2023-01-08T04:59:01.805Z,3.80
2023-01-08T05:01:29.347Z,3.90
2023-01-08T05:04:02.929Z,3.60
2023-01-08T05:06:31.617Z,3.63
2023-01-08T05:08:59.254Z,3.60
2023-01-08T05:11:26.487Z,3.93
2023-01-08T05:13:54.641Z,4.10
2023-01-08T05:16:22.311Z,3.40
2023-01-08T05:18:49.690Z,3.73
2023-01-08T05:21:17.177Z,3.87
2023-01-08T05:23:47.846Z,3.57
2023-01-08T05:26:16.045Z,3.80
2023-01-08T05:28:43.811Z,3.70
2023-01-08T05:31:11.773Z,3.60
2023-01-08T05:33:39.663Z,3.60
2023-01-08T05:36:10.293Z,3.80
2023-01-08T05:38:38.140Z,3.73
2023-01-08T05:41:06.700Z,3.33
2023-01-08T05:43:33.995Z,3.70
2023-01-08T05:46:02.876Z,3.73
2023-01-08T05:48:33.348Z,3.53
2023-01-08T05:51:00.680Z,3.70
2023-01-08T05:53:27.952Z,3.87
2023-01-08T05:56:21.548Z,4.17
2023-01-08T05:58:48.691Z,4.03
2023-01-08T06:01:16.605Z,4.00
2023-01-08T06:03:44.049Z,4.23
2023-01-08T06:06:12.731Z,4.00
2023-01-08T06:08:40.047Z,3.90
2023-01-08T06:11:09.127Z,3.73
2023-01-08T06:13:37.981Z,3.80
2023-01-08T06:16:05.680Z,3.77
2023-01-08T06:18:33.084Z,4.23
2023-01-08T06:21:01.265Z,4.37
2023-01-08T06:23:28.447Z,4.10
2023-01-08T06:25:57.977Z,3.90
2023-01-08T06:28:25.533Z,4.43
2023-01-08T06:30:52.858Z,3.90
2023-01-08T06:33:21.600Z,3.97
2023-01-08T06:35:49.378Z,4.60
2023-01-08T06:38:19.208Z,4.03
2023-01-08T06:40:49.500Z,4.23
2023-01-08T06:43:17.822Z,4.20
2023-01-08T06:45:44.984Z,4.30
2023-01-08T06:48:12.073Z,4.03
2023-01-08T06:50:39.240Z,4.30
2023-01-08T06:53:06.319Z,4.27
2023-01-08T06:55:33.392Z,4.73
2023-01-08T06:58:00.473Z,4.60
2023-01-08T07:00:27.968Z,4.97
2023-01-08T07:02:56.256Z,4.40
2023-01-08T07:05:23.830Z,5.33
2023-01-08T07:07:51.194Z,4.83
2023-01-08T07:10:20.063Z,4.73
2023-01-08T07:12:48.244Z,4.80
2023-01-08T07:15:15.907Z,5.33
2023-01-08T07:17:42.970Z,5.07
2023-01-08T07:20:11.080Z,5.90
2023-01-08T07:22:38.198Z,5.50
2023-01-08T07:25:06.143Z,5.40
2023-01-08T07:27:33.279Z,5.50
2023-01-08T07:30:00.428Z,5.47
2023-01-08T07:32:27.649Z,5.83
2023-01-08T07:34:59.035Z,6.20
2023-01-08T07:37:26.757Z,5.97
2023-01-08T07:39:53.992Z,6.33
2023-01-08T07:42:21.168Z,6.00
2023-01-08T07:44:48.242Z,6.00
2023-01-08T07:47:15.392Z,6.70
2023-01-08T07:49:42.570Z,6.50
2023-01-08T07:52:09.642Z,5.73
2023-01-08T07:54:36.686Z,6.43
2023-01-08T07:57:03.866Z,6.63
2023-01-08T07:59:30.882Z,6.23
2023-01-08T08:01:58.037Z,6.60
2023-01-08T08:04:25.265Z,6.33
2023-01-08T08:06:52.449Z,6.53
2023-01-08T08:09:19.549Z,6.70
2023-01-08T08:11:46.864Z,6.50
2023-01-08T08:14:14.045Z,6.50
2023-01-08T08:16:41.137Z,6.83
2023-01-08T08:19:08.245Z,6.93
2023-01-08T08:21:35.386Z,6.43
2023-01-08T08:24:02.573Z,6.97
2023-01-08T08:26:29.686Z,6.90
2023-01-08T08:28:56.795Z,7.33
2023-01-08T08:31:23.990Z,6.80
2023-01-08T08:33:51.240Z,7.30
2023-01-08T08:36:18.316Z,6.97
2023-01-08T08:38:45.453Z,6.57
2023-01-08T08:41:12.642Z,7.67
2023-01-08T08:43:39.858Z,6.37
2023-01-08T08:46:07.111Z,6.50
2023-01-08T08:48:34.280Z,6.80
2023-01-08T08:51:01.405Z,6.93
2023-01-08T08:53:28.498Z,7.43
2023-01-08T08:55:59.197Z,7.37
2023-01-08T08:58:26.392Z,6.63
2023-01-08T09:00:53.694Z,7.00
2023-01-08T09:03:21.149Z,7.13
2023-01-08T09:05:48.297Z,6.97
2023-01-08T09:08:15.494Z,7.20
2023-01-08T09:10:43.584Z,6.80
2023-01-08T09:13:11.297Z,7.70
2023-01-08T09:15:38.822Z,7.90
2023-01-08T09:18:06.140Z,7.17
2023-01-08T09:20:33.273Z,8.20
2023-01-08T09:23:03.091Z,8.40
2023-01-08T09:25:31.012Z,7.80
2023-01-08T09:28:12.176Z,8.50
2023-01-08T09:30:40.206Z,8.20
2023-01-08T09:33:07.648Z,8.47
2023-01-08T09:35:34.934Z,8.57
2023-01-08T09:38:02.027Z,8.90
2023-01-08T09:40:37.993Z,9.23
2023-01-08T09:43:08.355Z,8.87
2023-01-08T09:45:39.634Z,9.87
2023-01-08T09:48:16.235Z,8.87
2023-01-08T09:50:43.605Z,9.67
2023-01-08T09:53:16.908Z,9.47
2023-01-08T09:55:45.817Z,9.60
2023-01-08T09:58:35.670Z,9.63
2023-01-08T10:01:05.341Z,9.30
2023-01-08T10:03:43.068Z,9.63
2023-01-08T10:06:13.363Z,9.13
2023-01-08T10:08:41.196Z,8.80
2023-01-08T10:11:10.780Z,8.77
2023-01-08T10:13:49.628Z,9.10
2023-01-08T10:16:38.011Z,9.43
2023-01-08T10:19:06.431Z,8.77
2023-01-08T10:21:40.183Z,9.73
2023-01-08T10:24:08.013Z,9.37
2023-01-08T10:26:37.844Z,9.03
2023-01-08T10:29:17.155Z,9.23
2023-01-08T10:31:54.336Z,8.43
2023-01-08T10:34:52.233Z,8.83
2023-01-08T10:37:39.266Z,9.03
2023-01-08T10:40:47.215Z,9.17
2023-01-08T10:43:19.279Z,8.47
2023-01-08T10:46:02.744Z,9.17
2023-01-08T10:48:46.600Z,9.10
2023-01-08T10:51:17.221Z,9.20
2023-01-08T10:53:44.789Z,9.17
2023-01-08T10:56:30.413Z,8.70
2023-01-08T10:58:57.737Z,8.97
2023-01-08T11:01:30.739Z,8.80
2023-01-08T11:04:06.933Z,9.40
2023-01-08T11:06:45.320Z,8.87
2023-01-08T11:09:30.093Z,9.60
2023-01-08T11:11:58.353Z,9.37
2023-01-08T11:14:35.261Z,8.67
2023-01-08T11:17:10.490Z,8.80
2023-01-08T11:19:39.960Z,8.10
2023-01-08T11:22:20.963Z,7.50
2023-01-08T11:24:50.592Z,8.03
2023-01-08T11:27:35.947Z,7.27
2023-01-08T11:30:06.419Z,6.97
2023-01-08T11:33:00.748Z,7.20
2023-01-08T11:35:32.811Z,7.10
2023-01-08T11:38:02.307Z,7.00
2023-01-08T11:40:53.505Z,7.20
2023-01-08T11:44:02.393Z,7.00
2023-01-08T11:46:56.650Z,7.53
2023-01-08T11:49:47.853Z,7.40
2023-01-08T11:52:45.810Z,8.33
2023-01-08T11:55:35.558Z,8.23
2023-01-08T11:58:32.815Z,8.13
2023-01-08T12:01:58.506Z,7.70
2023-01-08T12:04:49.908Z,8.57
2023-01-08T12:07:33.023Z,9.17
2023-01-08T12:10:37.883Z,8.73
2023-01-08T12:13:32.615Z,9.17
2023-01-08T12:16:17.749Z,9.27
2023-01-08T12:19:16.990Z,8.70
2023-01-08T12:22:08.784Z,8.57
2023-01-08T12:25:03.490Z,8.93
2023-01-08T12:28:00.650Z,8.63
2023-01-08T12:31:12.823Z,8.80
2023-01-08T12:33:52.877Z,8.43
2023-01-08T12:36:40.552Z,8.83
2023-01-08T12:39:17.067Z,9.03
2023-01-08T12:41:45.724Z,8.30
2023-01-08T12:44:17.921Z,8.50
2023-01-08T12:46:48.351Z,8.30
2023-01-08T12:49:26.923Z,7.97
2023-01-08T12:52:12.333Z,8.07
2023-01-08T12:55:05.261Z,7.83
2023-01-08T12:57:39.429Z,8.03
2023-01-08T13:00:27.376Z,7.83
2023-01-08T13:03:02.335Z,7.50
2023-01-08T13:05:36.805Z,7.17
2023-01-08T13:08:08.505Z,7.40
2023-01-08T13:10:40.103Z,7.50
2023-01-08T13:13:27.356Z,7.13
2023-01-08T13:16:24.447Z,7.23
2023-01-08T13:18:57.749Z,7.77
2023-01-08T13:21:39.248Z,7.77
2023-01-08T13:24:35.663Z,6.43
2023-01-08T13:27:29.242Z,7.50
2023-01-08T13:29:58.163Z,6.77
2023-01-08T13:32:47.230Z,6.63
2023-01-08T13:35:17.419Z,6.83
2023-01-08T13:38:06.059Z,7.13
2023-01-08T13:40:48.151Z,7.27
2023-01-08T13:43:30.750Z,7.13
2023-01-08T13:46:01.055Z,7.00
2023-01-08T13:48:37.846Z,7.07
2023-01-08T13:51:06.028Z,7.17
2023-01-08T13:53:34.506Z,7.37
2023-01-08T13:56:07.452Z,7.40
2023-01-08T13:58:45.396Z,6.83
2023-01-08T14:01:13.732Z,6.70
2023-01-08T14:03:47.662Z,6.50
2023-01-08T14:06:23.985Z,7.37
2023-01-08T14:09:03.140Z,6.40
2023-01-08T14:11:42.482Z,6.50
2023-01-08T14:14:17.168Z,5.87
2023-01-08T14:16:46.562Z,5.77
2023-01-08T14:19:20.514Z,5.77
2023-01-08T14:21:54.357Z,6.60
2023-01-08T14:24:24.222Z,5.80
2023-01-08T14:26:58.025Z,6.23
2023-01-08T14:29:29.872Z,6.27
2023-01-08T14:32:00.324Z,6.27
2023-01-08T14:34:31.305Z,6.43
2023-01-08T14:36:58.536Z,6.10
2023-01-08T14:39:31.783Z,6.30
2023-01-08T14:42:32.565Z,6.27
2023-01-08T14:45:27.957Z,6.70
2023-01-08T14:48:02.688Z,7.00
2023-01-08T14:50:37.672Z,7.07
2023-01-08T14:53:26.208Z,7.43
2023-01-08T14:55:55.929Z,6.90
2023-01-08T14:58:27.053Z,6.93
2023-01-08T15:01:02.349Z,8.93
2023-01-08T15:03:34.141Z,7.43
2023-01-08T15:06:01.667Z,6.10
2023-01-08T15:08:41.545Z,6.73
2023-01-08T15:11:29.637Z,6.20
2023-01-08T15:13:58.991Z,6.27
2023-01-08T15:16:39.325Z,6.30
2023-01-08T15:19:18.256Z,7.50
2023-01-08T15:21:55.127Z,6.83
2023-01-08T15:24:34.888Z,6.80
2023-01-08T15:27:10.162Z,7.50
2023-01-08T15:29:52.517Z,7.30
2023-01-08T15:32:24.100Z,6.67
2023-01-08T15:34:51.259Z,7.27
2023-01-08T15:37:18.426Z,7.53
2023-01-08T15:39:45.586Z,7.87
2023-01-08T15:42:49.587Z,6.90
2023-01-08T15:45:20.083Z,7.33
2023-01-08T15:47:47.736Z,7.30
2023-01-08T15:50:15.575Z,7.30
2023-01-08T15:52:43.849Z,7.13
2023-01-08T15:55:18.396Z,7.23
2023-01-08T15:57:45.680Z,7.17
2023-01-08T16:00:15.345Z,7.87
2023-01-08T16:02:48.821Z,7.80
2023-01-08T16:05:19.495Z,7.93
2023-01-08T16:07:47.278Z,7.87
2023-01-08T16:10:16.092Z,8.03
2023-01-08T16:12:43.589Z,7.90
2023-01-08T16:15:12.569Z,8.10
2023-01-08T16:17:39.996Z,7.60
2023-01-08T16:20:09.430Z,7.57
2023-01-08T16:22:36.660Z,7.60
2023-01-08T16:25:04.826Z,7.23
2023-01-08T16:27:34.325Z,7.40
2023-01-08T16:30:01.578Z,6.83
2023-01-08T16:32:28.784Z,6.80
2023-01-08T16:34:55.989Z,7.13
2023-01-08T16:37:23.207Z,7.30
2023-01-08T16:39:50.636Z,8.00
2023-01-08T16:42:17.889Z,8.67
2023-01-08T16:44:45.379Z,8.37
2023-01-08T16:47:12.569Z,8.00
2023-01-08T16:49:41.634Z,7.93
2023-01-08T16:52:09.775Z,7.40
2023-01-08T16:54:37.410Z,7.97
2023-01-08T16:57:05.699Z,7.80
2023-01-08T16:59:33.197Z,7.80
2023-01-08T17:02:00.527Z,7.93
2023-01-08T17:04:29.771Z,8.40
2023-01-08T17:06:57.785Z,7.77
2023-01-08T17:09:25.529Z,8.57
2023-01-08T17:11:52.676Z,8.93
2023-01-08T17:14:19.791Z,8.23
2023-01-08T17:16:47.749Z,8.73
2023-01-08T17:19:16.426Z,9.03
2023-01-08T17:21:45.745Z,8.23
2023-01-08T17:24:13.026Z,9.17
2023-01-08T17:26:40.204Z,9.50
2023-01-08T17:29:07.611Z,9.60
2023-01-08T17:31:40.001Z,9.67
2023-01-08T17:34:12.692Z,9.80
2023-01-08T17:36:40.401Z,10.13
2023-01-08T17:39:07.717Z,9.93
2023-01-08T17:42:10.512Z,10.00
2023-01-08T17:44:37.678Z,9.33
2023-01-08T17:47:04.819Z,10.23
2023-01-08T17:49:32.020Z,10.80
2023-01-08T17:51:59.401Z,10.57
2023-01-08T17:54:26.728Z,10.30
2023-01-08T17:56:53.958Z,11.20
2023-01-08T17:59:21.328Z,10.97
2023-01-08T18:01:51.797Z,11.47
2023-01-08T18:04:19.406Z,11.27
2023-01-08T18:06:46.650Z,11.17
2023-01-08T18:09:13.891Z,11.07
2023-01-08T18:11:42.270Z,12.30
2023-01-08T18:14:12.693Z,12.07
2023-01-08T18:16:45.252Z,12.20
2023-01-08T18:19:13.784Z,11.97
2023-01-08T18:21:40.913Z,12.50
2023-01-08T18:24:08.675Z,12.67
2023-01-08T18:26:36.075Z,13.13
2023-01-08T18:29:04.681Z,13.73
2023-01-08T18:31:32.409Z,13.73
2023-01-08T18:33:59.988Z,14.87
2023-01-08T18:36:27.191Z,13.43
2023-01-08T18:38:57.418Z,11.43
2023-01-08T18:41:43.031Z,12.40
2023-01-08T18:44:11.545Z,12.77
2023-01-08T18:46:38.892Z,13.47
2023-01-08T18:49:06.599Z,10.67
2023-01-08T18:51:33.821Z,10.87
2023-01-08T18:54:00.945Z,10.43
2023-01-08T18:56:31.634Z,11.83
2023-01-08T18:58:59.597Z,16.30
2023-01-08T19:01:26.963Z,10.80
2023-01-08T19:03:55.791Z,11.00
2023-01-08T19:06:23.607Z,11.53
2023-01-08T19:08:51.369Z,11.83
2023-01-08T19:11:18.744Z,12.30
2023-01-08T19:13:46.013Z,11.73
2023-01-08T19:16:14.182Z,11.30
2023-01-08T19:18:41.619Z,13.80
2023-01-08T19:21:13.468Z,10.23
2023-01-08T19:23:41.543Z,15.77
2023-01-08T19:26:09.258Z,15.00
2023-01-08T19:28:37.001Z,10.87
2023-01-08T19:31:04.701Z,12.73
2023-01-08T19:33:32.037Z,11.87
2023-01-08T19:36:08.587Z,10.90
2023-01-08T19:38:35.881Z,11.53
2023-01-08T19:41:03.558Z,10.13
2023-01-08T19:43:43.175Z,11.70
2023-01-08T19:46:15.488Z,10.97
2023-01-08T19:48:44.073Z,10.53
2023-01-08T19:51:12.216Z,10.27
2023-01-08T19:53:39.666Z,10.27
2023-01-08T19:56:11.254Z,9.50
2023-01-08T19:58:39.055Z,9.33
2023-01-08T20:01:19.858Z,9.43
2023-01-08T20:03:48.289Z,10.10
2023-01-08T20:06:22.829Z,9.00
2023-01-08T20:08:54.226Z,10.40
2023-01-08T20:11:22.799Z,10.07
2023-01-08T20:13:51.452Z,9.10
2023-01-08T20:16:21.384Z,9.60
2023-01-08T20:18:49.035Z,10.23
2023-01-08T20:21:21.726Z,9.73
2023-01-08T20:23:54.662Z,9.40
2023-01-08T20:26:21.836Z,9.13
2023-01-08T20:28:50.440Z,9.17
2023-01-08T20:31:20.360Z,9.43
2023-01-08T20:33:48.867Z,10.37
2023-01-08T20:36:23.189Z,9.73
2023-01-08T20:38:59.084Z,10.03
2023-01-08T20:41:26.568Z,10.10
2023-01-08T20:43:58.301Z,9.40
2023-01-08T20:46:28.633Z,9.97
2023-01-08T20:49:03.711Z,9.50
2023-01-08T20:51:42.340Z,9.80
2023-01-08T20:54:16.802Z,9.10
2023-01-08T20:56:44.980Z,9.13
2023-01-08T20:59:12.447Z,9.37
2023-01-08T21:01:39.678Z,8.83
2023-01-08T21:04:09.948Z,9.17
2023-01-08T21:06:37.677Z,9.40
2023-01-08T21:09:08.859Z,9.30
2023-01-08T21:11:39.634Z,9.43
2023-01-08T21:14:10.518Z,9.57
2023-01-08T21:16:39.617Z,9.67
2023-01-08T21:19:09.653Z,9.70
2023-01-08T21:21:40.216Z,9.43
2023-01-08T21:24:11.080Z,9.53
2023-01-08T21:26:39.083Z,9.10
2023-01-08T21:29:08.920Z,11.40
2023-01-08T21:31:37.105Z,10.10
2023-01-08T21:34:06.146Z,8.87
2023-01-08T21:36:33.477Z,8.63
2023-01-08T21:39:01.969Z,9.37
2023-01-08T21:41:48.757Z,8.83
2023-01-08T21:44:40.796Z,9.70
2023-01-08T21:47:13.821Z,9.80
2023-01-08T21:49:41.253Z,9.20
2023-01-08T21:52:27.485Z,9.63
2023-01-08T21:54:56.222Z,8.57
2023-01-08T21:57:25.358Z,8.43
2023-01-08T21:59:52.566Z,8.93
2023-01-08T22:02:23.164Z,9.33
2023-01-08T22:04:50.297Z,8.57
2023-01-08T22:07:17.531Z,8.40
2023-01-08T22:09:44.981Z,8.60
2023-01-08T22:12:14.193Z,8.37
2023-01-08T22:14:41.647Z,9.03
2023-01-08T22:17:08.762Z,8.17
2023-01-08T22:19:38.799Z,7.97
2023-01-08T22:22:08.211Z,7.43
2023-01-08T22:24:37.533Z,7.60
2023-01-08T22:27:04.655Z,7.43
2023-01-08T22:29:31.932Z,7.53
2023-01-08T22:31:59.199Z,7.30
2023-01-08T22:34:30.936Z,10.07
2023-01-08T22:36:58.079Z,7.93
2023-01-08T22:39:25.539Z,7.23
2023-01-08T22:41:52.691Z,8.03
2023-01-08T22:44:20.296Z,7.30
2023-01-08T22:46:47.450Z,7.87
2023-01-08T22:49:15.427Z,7.50
2023-01-08T22:51:43.834Z,8.20
2023-01-08T22:54:14.958Z,8.37
2023-01-08T22:56:42.019Z,8.03
2023-01-08T22:59:09.188Z,8.00
2023-01-08T23:01:36.546Z,7.90
2023-01-08T23:04:04.230Z,7.53
2023-01-08T23:06:32.239Z,7.40
2023-01-08T23:08:59.728Z,7.57
2023-01-08T23:11:27.504Z,7.10
2023-01-08T23:13:55.148Z,7.07
2023-01-08T23:16:25.862Z,6.57
2023-01-08T23:18:54.720Z,6.60
2023-01-08T23:21:24.782Z,6.27
2023-01-08T23:23:52.799Z,6.50
2023-01-08T23:26:28.736Z,6.80
2023-01-08T23:28:57.553Z,6.17
2023-01-08T23:31:29.138Z,6.23
2023-01-08T23:33:57.360Z,6.17
2023-01-08T23:36:25.893Z,6.67
2023-01-08T23:38:55.692Z,6.60
2023-01-08T23:41:33.065Z,7.03
2023-01-08T23:44:05.686Z,6.70
2023-01-08T23:46:33.854Z,6.00
2023-01-08T23:49:01.021Z,5.97
2023-01-08T23:51:28.117Z,5.97
2023-01-08T23:53:55.226Z,5.90
2023-01-08T23:56:22.697Z,5.73
2023-01-08T23:58:50.385Z,5.87
